Time;durP1;ratioP1;P1;durP2;ratioP2;P2;SDS_P1;SDS_P2;PMS_P1;PMS_P2;Temp;Humidity;BMP_temperature;BMP_pressure;BME280_temperature;BME280_humidity;BME280_pressure;Samples;Min_cycle;Max_cycle;Signal;HPM_P1;HPM_P2
2024/04/14 00:00:56;;;;;;;9.07;8.37;;;12.60;99.90;;;;;;5406502;26;20241;-79
2024/04/14 00:03:24;;;;;;;6.60;6.00;;;12.60;99.90;;;;;;5402641;26;20749;-79
2024/04/14 00:05:52;;;;;;;6.40;5.80;;;12.60;99.90;;;;;;5399683;26;20276;-77
2024/04/14 00:08:18;;;;;;;6.73;5.40;;;12.60;99.90;;;;;;5400238;26;20338;-77
2024/04/14 00:10:47;;;;;;;7.10;6.40;;;12.60;99.90;;;;;;5391449;26;20249;-77
2024/04/14 00:13:13;;;;;;;5.20;4.70;;;12.60;99.90;;;;;;5397016;26;20657;-79
2024/04/14 00:15:42;;;;;;;5.33;4.20;;;12.70;99.90;;;;;;5391305;26;20234;-77
2024/04/14 00:18:08;;;;;;;5.47;4.30;;;12.70;99.90;;;;;;5401122;26;20234;-77
2024/04/14 00:20:39;;;;;;;5.40;4.40;;;12.80;99.90;;;;;;5412475;26;20233;-78
2024/04/14 00:23:05;;;;;;;5.57;4.50;;;12.80;99.90;;;;;;5394746;26;20776;-78
2024/04/14 00:25:36;;;;;;;4.97;4.10;;;12.90;99.90;;;;;;5400857;26;20245;-77
2024/04/14 00:28:02;;;;;;;5.67;4.47;;;12.90;99.90;;;;;;5409569;26;20233;-79
2024/04/14 00:30:31;;;;;;;5.40;4.27;;;12.90;99.90;;;;;;5412504;26;20271;-78
2024/04/14 00:32:57;;;;;;;5.67;4.13;;;12.90;99.90;;;;;;5390991;26;20239;-81
2024/04/14 00:35:26;;;;;;;5.93;4.50;;;12.90;99.90;;;;;;5401674;26;20333;-79
2024/04/14 00:37:55;;;;;;;6.00;4.60;;;12.90;99.90;;;;;;5397901;26;20244;-79
2024/04/14 00:40:23;;;;;;;6.63;4.80;;;12.90;99.90;;;;;;5464059;26;20320;-77
2024/04/14 00:42:55;;;;;;;6.30;4.40;;;12.90;99.90;;;;;;5401691;26;20279;-78
2024/04/14 00:45:24;;;;;;;3.80;3.37;;;12.90;99.90;;;;;;5405579;26;20275;-77
2024/04/14 00:47:50;;;;;;;6.13;4.17;;;13.00;99.90;;;;;;5400826;26;20287;-79
2024/04/14 00:50:19;;;;;;;4.83;3.90;;;13.00;99.90;;;;;;5400534;26;20245;-79
2024/04/14 00:52:45;;;;;;;4.67;4.03;;;13.00;99.90;;;;;;5393251;26;20774;-77
2024/04/14 00:55:17;;;;;;;4.67;3.60;;;13.00;99.90;;;;;;5399091;26;20225;-77
2024/04/14 00:57:44;;;;;;;3.80;3.40;;;13.00;99.90;;;;;;5388450;26;20363;-77
2024/04/14 01:00:14;;;;;;;6.13;3.90;;;13.00;99.90;;;;;;5399021;26;20240;-78
2024/04/14 01:02:41;;;;;;;4.27;3.33;;;13.10;99.90;;;;;;5400925;26;20240;-79
2024/04/14 01:05:10;;;;;;;5.03;3.83;;;13.10;99.90;;;;;;5397266;26;20283;-79
2024/04/14 01:07:39;;;;;;;3.47;3.17;;;13.10;99.90;;;;;;5399661;26;20303;-79
2024/04/14 01:10:08;;;;;;;4.50;3.33;;;13.10;99.90;;;;;;5395613;26;20779;-79
2024/04/14 01:12:36;;;;;;;5.57;4.13;;;13.10;99.90;;;;;;5424928;26;20241;-79
2024/04/14 01:15:05;;;;;;;5.80;4.27;;;13.00;99.90;;;;;;5415465;26;20264;-78
2024/04/14 01:17:32;;;;;;;6.30;4.27;;;12.90;99.90;;;;;;5411766;26;20229;-79
2024/04/14 01:20:01;;;;;;;5.90;4.80;;;12.80;99.90;;;;;;5389456;26;20303;-78
2024/04/14 01:22:27;;;;;;;6.67;4.83;;;12.70;99.90;;;;;;5394903;26;20599;-78
2024/04/14 01:25:06;;;;;;;8.57;7.67;;;12.60;99.90;;;;;;5400782;26;20242;-79
2024/04/14 01:27:32;;;;;;;8.30;5.80;;;12.50;99.90;;;;;;5404091;26;20705;-78
2024/04/14 01:30:00;;;;;;;8.73;6.07;;;12.50;99.90;;;;;;5399987;26;20243;-78
2024/04/14 01:32:27;;;;;;;6.77;5.47;;;12.40;99.90;;;;;;5391155;26;20233;-78
2024/04/14 01:34:55;;;;;;;6.63;4.83;;;12.30;99.90;;;;;;5410642;26;20355;-79
2024/04/14 01:37:21;;;;;;;7.30;5.00;;;12.30;99.90;;;;;;5404084;26;20237;-78
2024/04/14 01:39:50;;;;;;;6.80;5.80;;;12.30;99.90;;;;;;5415988;26;20288;-77
2024/04/14 01:42:18;;;;;;;7.07;6.47;;;12.30;99.90;;;;;;5400875;26;20287;-78
2024/04/14 01:44:46;;;;;;;6.83;4.40;;;12.30;99.90;;;;;;5393819;26;20237;-78
2024/04/14 01:47:12;;;;;;;5.13;4.37;;;12.20;99.90;;;;;;5401322;26;20288;-79
2024/04/14 01:49:41;;;;;;;6.40;4.70;;;12.30;99.90;;;;;;5411175;26;20689;-78
2024/04/14 01:52:06;;;;;;;6.50;5.13;;;12.20;99.90;;;;;;5404797;26;20344;-79
2024/04/14 01:54:35;;;;;;;6.87;6.20;;;12.20;99.90;;;;;;5395073;26;20241;-78
2024/04/14 01:57:01;;;;;;;8.20;7.50;;;12.20;99.90;;;;;;5412707;26;20232;-76
2024/04/14 01:59:32;;;;;;;6.03;4.67;;;12.10;99.90;;;;;;5420022;26;20267;-78
2024/04/14 02:01:57;;;;;;;4.93;4.43;;;12.10;99.90;;;;;;5406265;26;20238;-76
2024/04/14 02:04:26;;;;;;;5.20;4.10;;;12.00;99.90;;;;;;5416423;26;20234;-77
2024/04/14 02:06:52;;;;;;;7.80;7.10;;;12.00;99.90;;;;;;5395136;26;20241;-78
2024/04/14 02:09:21;;;;;;;6.70;6.10;;;11.90;99.90;;;;;;5389154;26;20608;-77
2024/04/14 02:11:46;;;;;;;5.43;3.97;;;11.80;99.90;;;;;;5392576;26;20739;-77
2024/04/14 02:14:15;;;;;;;5.87;4.93;;;11.70;99.90;;;;;;5402296;26;20240;-76
2024/04/14 02:16:43;;;;;;;7.97;7.10;;;11.70;99.90;;;;;;5399926;26;20236;-78
2024/04/14 02:19:13;;;;;;;6.03;5.50;;;11.60;99.90;;;;;;5412439;26;20236;-78
2024/04/14 02:21:38;;;;;;;3.73;3.30;;;11.60;99.90;;;;;;5399767;26;20281;-76
2024/04/14 02:24:09;;;;;;;8.33;7.57;;;11.50;99.90;;;;;;5396685;26;20245;-78
2024/04/14 02:26:35;;;;;;;7.00;6.50;;;11.50;99.90;;;;;;5404176;26;20252;-79
2024/04/14 02:29:04;;;;;;;4.93;3.67;;;11.50;99.90;;;;;;5407172;26;20688;-76
2024/04/14 02:31:30;;;;;;;6.20;3.80;;;11.60;99.90;;;;;;5419361;26;20243;-79
2024/04/14 02:34:01;;;;;;;3.77;3.20;;;11.60;99.90;;;;;;5409319;26;20279;-79
2024/04/14 02:36:28;;;;;;;4.37;3.60;;;11.60;99.90;;;;;;5415029;26;20282;-78
2024/04/14 02:38:56;;;;;;;4.30;3.53;;;11.70;99.90;;;;;;5401322;26;20671;-77
2024/04/14 02:41:22;;;;;;;5.00;3.37;;;11.70;99.90;;;;;;5415280;26;20593;-78
2024/04/14 02:43:50;;;;;;;3.60;3.30;;;11.70;99.90;;;;;;5426006;26;20253;-78
2024/04/14 02:46:16;;;;;;;4.67;4.23;;;11.70;99.90;;;;;;5400724;26;20437;-78
2024/04/14 02:48:50;;;;;;;5.63;4.40;;;11.70;99.90;;;;;;5396447;26;20289;-77
2024/04/14 02:51:20;;;;;;;5.67;4.30;;;11.60;99.90;;;;;;5391971;26;20231;-78
2024/04/14 02:53:49;;;;;;;4.07;3.50;;;11.60;99.90;;;;;;5394903;26;20240;-77
2024/04/14 02:57:08;;;;;;;4.47;3.33;;;11.60;99.90;;;;;;5412266;26;20243;-77
2024/04/14 02:59:34;;;;;;;6.73;6.23;;;11.50;99.90;;;;;;5410465;26;20240;-77
2024/04/14 03:02:03;;;;;;;4.67;3.90;;;11.50;99.90;;;;;;5405887;26;20233;-78
2024/04/14 03:04:30;;;;;;;4.13;3.53;;;11.40;99.90;;;;;;5420765;26;20232;-79
2024/04/14 03:09:38;;;;;;;3.17;2.87;;;11.40;99.90;;;;;;5411495;26;20348;-78
2024/04/14 03:12:04;;;;;;;6.70;6.10;;;11.40;99.90;;;;;;5418362;26;20236;-77
2024/04/14 03:14:33;;;;;;;6.80;6.30;;;11.40;99.90;;;;;;5409855;26;20274;-78
2024/04/14 03:17:01;;;;;;;7.70;7.10;;;11.50;99.90;;;;;;5399320;26;20286;-78
2024/04/14 03:19:29;;;;;;;7.63;7.03;;;11.50;99.90;;;;;;5401534;26;20239;-78
2024/04/14 03:21:58;;;;;;;6.70;6.20;;;11.50;99.90;;;;;;5387582;26;20716;-77
2024/04/14 03:24:26;;;;;;;7.37;6.87;;;11.50;99.90;;;;;;5397160;26;20801;-76
2024/04/14 03:26:58;;;;;;;6.40;5.97;;;11.60;99.90;;;;;;5411435;26;20271;-75
2024/04/14 03:29:26;;;;;;;6.37;5.90;;;11.60;99.90;;;;;;5396161;26;20236;-75
2024/04/14 03:31:52;;;;;;;6.73;6.00;;;11.50;99.90;;;;;;5383867;26;20233;-75
2024/04/14 03:34:20;;;;;;;6.87;6.27;;;11.50;99.90;;;;;;5388889;26;20275;-75
2024/04/14 03:36:49;;;;;;;6.97;6.30;;;11.50;99.90;;;;;;5393591;26;20234;-75
2024/04/14 03:39:20;;;;;;;5.87;5.33;;;11.50;99.90;;;;;;5387524;26;20672;-75
2024/04/14 03:41:48;;;;;;;6.03;5.53;;;11.50;99.90;;;;;;5407065;26;20244;-76
2024/04/14 03:44:18;;;;;;;4.23;3.83;;;11.50;99.90;;;;;;5407148;26;20232;-76
2024/04/14 03:46:47;;;;;;;4.03;3.73;;;11.50;99.90;;;;;;5411146;26;20773;-76
2024/04/14 03:49:12;;;;;;;4.27;3.87;;;11.50;99.90;;;;;;5410030;26;20236;-76
2024/04/14 03:51:41;;;;;;;3.97;3.67;;;11.50;99.90;;;;;;5391642;26;20271;-75
2024/04/14 03:54:10;;;;;;;3.87;3.57;;;11.60;99.90;;;;;;5413241;26;20283;-75
2024/04/14 03:56:38;;;;;;;4.37;4.00;;;11.60;99.90;;;;;;5408133;26;20582;-75
2024/04/14 03:59:06;;;;;;;4.23;3.90;;;11.50;99.90;;;;;;5412957;26;20270;-75
2024/04/14 04:01:33;;;;;;;4.73;4.27;;;11.50;99.90;;;;;;5404525;26;20236;-76
2024/04/14 04:04:01;;;;;;;4.80;4.40;;;11.50;99.90;;;;;;5388564;26;20291;-75
2024/04/14 04:06:30;;;;;;;4.63;4.30;;;11.50;99.90;;;;;;5400609;26;20231;-76
2024/04/14 04:08:56;;;;;;;6.33;5.83;;;11.50;99.90;;;;;;5395836;26;20298;-77
2024/04/14 04:11:24;;;;;;;6.10;5.60;;;11.40;99.90;;;;;;5400212;26;20251;-76
2024/04/14 04:13:52;;;;;;;5.63;5.13;;;11.40;99.90;;;;;;5408913;26;20730;-76
2024/04/14 04:16:21;;;;;;;6.47;5.90;;;11.40;99.90;;;;;;5410252;26;20275;-76
2024/04/14 04:18:47;;;;;;;5.37;3.40;;;11.30;99.90;;;;;;5403320;26;20290;-76
2024/04/14 04:21:15;;;;;;;4.17;3.00;;;11.30;99.90;;;;;;5412657;26;20232;-76
2024/04/14 04:23:41;;;;;;;3.37;3.00;;;11.20;99.90;;;;;;5407166;26;20282;-76
2024/04/14 04:26:09;;;;;;;3.63;3.00;;;11.20;99.90;;;;;;5411278;26;20240;-76
2024/04/14 04:28:35;;;;;;;4.57;3.47;;;11.20;99.90;;;;;;5409302;26;20228;-75
2024/04/14 04:31:12;;;;;;;4.90;3.60;;;11.10;99.90;;;;;;5405556;26;20243;-75
2024/04/14 04:33:39;;;;;;;6.50;4.77;;;11.00;99.90;;;;;;5421095;20;20745;-78
2024/04/14 04:36:08;;;;;;;6.77;6.27;;;11.00;99.90;;;;;;5399892;26;20835;-79
2024/04/14 04:38:33;;;;;;;7.00;6.40;;;10.90;99.90;;;;;;5398668;26;20292;-79
2024/04/14 04:41:03;;;;;;;6.90;6.40;;;10.80;99.90;;;;;;5389635;26;20334;-79
2024/04/14 04:43:29;;;;;;;6.83;6.23;;;10.80;99.90;;;;;;5386210;26;20238;-79
2024/04/14 04:45:57;;;;;;;11.97;7.07;;;10.80;99.90;;;;;;5414287;26;20287;-78
2024/04/14 04:48:26;;;;;;;6.97;6.27;;;10.80;99.90;;;;;;5371468;26;20273;-78
2024/04/14 04:50:55;;;;;;;6.63;6.13;;;10.70;99.90;;;;;;5399675;26;20244;-79
2024/04/14 04:53:21;;;;;;;6.63;6.07;;;10.70;99.90;;;;;;5373030;26;20745;-77
2024/04/14 04:55:50;;;;;;;6.33;5.73;;;10.70;99.90;;;;;;5370348;26;20275;-78
2024/04/14 04:58:16;;;;;;;5.83;5.30;;;10.80;99.90;;;;;;5385178;26;20854;-79
2024/04/14 05:00:53;;;;;;;5.73;5.20;;;10.80;99.90;;;;;;5374957;26;20246;-79
2024/04/14 05:03:19;;;;;;;6.00;5.40;;;10.90;99.90;;;;;;5370454;26;20247;-79
2024/04/14 05:05:58;;;;;;;6.30;5.70;;;11.00;99.90;;;;;;5388104;26;20278;-79
2024/04/14 05:08:25;;;;;;;6.10;5.60;;;11.20;99.90;;;;;;5365495;26;20269;-79
2024/04/14 05:10:54;;;;;;;5.80;5.40;;;11.20;99.90;;;;;;5371223;26;20329;-79
2024/04/14 05:13:20;;;;;;;5.20;4.70;;;11.40;99.90;;;;;;5356406;26;20250;-78
2024/04/14 05:15:48;;;;;;;5.77;4.63;;;11.50;99.90;;;;;;5371205;26;20344;-78
2024/04/14 05:18:14;;;;;;;5.20;4.70;;;11.60;99.90;;;;;;5400635;26;20239;-79
2024/04/14 05:20:42;;;;;;;6.97;5.37;;;11.70;99.90;;;;;;5411020;26;20241;-79
2024/04/14 05:23:11;;;;;;;6.17;5.57;;;11.90;99.90;;;;;;5380376;26;20238;-79
2024/04/14 05:25:41;;;;;;;7.53;6.90;;;12.00;99.90;;;;;;5370004;26;20272;-79
2024/04/14 05:28:08;;;;;;;7.40;6.77;;;12.00;99.90;;;;;;5372395;26;20974;-81
2024/04/14 05:30:39;;;;;;;6.30;5.70;;;12.20;99.90;;;;;;5372720;26;20230;-82
2024/04/14 05:33:05;;;;;;;6.47;5.87;;;12.40;99.90;;;;;;5384840;26;20245;-82
2024/04/14 05:35:34;;;;;;;3.93;3.60;;;12.70;99.90;;;;;;5371183;26;20285;-79
2024/04/14 05:38:00;;;;;;;5.33;3.87;;;12.90;99.90;;;;;;5370077;26;20285;-79
2024/04/14 05:40:31;;;;;;;4.87;3.70;;;13.20;99.90;;;;;;5369368;26;20238;-79
2024/04/14 05:42:57;;;;;;;6.20;3.57;;;13.40;99.90;;;;;;5399735;26;20245;-79
2024/04/14 05:45:25;;;;;;;3.63;3.33;;;13.60;99.90;;;;;;5369632;26;20242;-79
2024/04/14 05:47:51;;;;;;;4.37;3.17;;;13.70;99.90;;;;;;5370811;26;20237;-79
2024/04/14 05:50:20;;;;;;;3.17;2.87;;;13.90;99.90;;;;;;5370531;26;20290;-80
2024/04/14 05:52:46;;;;;;;3.37;2.90;;;14.10;99.90;;;;;;5371407;26;20240;-80
2024/04/14 05:55:14;;;;;;;3.67;3.10;;;14.30;99.90;;;;;;5369186;26;20279;-80
2024/04/14 05:57:42;;;;;;;4.67;3.40;;;14.50;99.90;;;;;;5370863;26;20782;-79
2024/04/14 06:00:11;;;;;;;3.47;3.10;;;14.70;99.90;;;;;;5369511;26;20249;-80
2024/04/14 06:02:42;;;;;;;3.27;2.90;;;15.00;99.90;;;;;;5370340;26;20360;-80
2024/04/14 06:05:11;;;;;;;3.07;2.83;;;15.30;99.90;;;;;;5369463;26;20731;-79
2024/04/14 06:07:37;;;;;;;3.90;2.80;;;15.40;99.90;;;;;;5370209;26;20238;-80
2024/04/14 06:10:06;;;;;;;3.17;2.87;;;15.50;99.90;;;;;;5369466;26;20250;-79
2024/04/14 06:12:32;;;;;;;3.27;2.97;;;15.70;99.90;;;;;;5369601;26;20325;-80
2024/04/14 06:15:03;;;;;;;4.80;2.87;;;15.90;99.90;;;;;;5369368;26;20246;-79
2024/04/14 06:17:29;;;;;;;6.60;2.80;;;16.10;99.90;;;;;;5370517;26;20345;-80
2024/04/14 06:19:58;;;;;;;2.83;2.60;;;16.30;99.90;;;;;;5371827;26;20245;-79
2024/04/14 06:22:24;;;;;;;4.20;3.20;;;16.40;99.90;;;;;;5370777;26;20288;-80
2024/04/14 06:24:52;;;;;;;3.07;2.77;;;16.70;99.90;;;;;;5378080;26;20748;-77
2024/04/14 06:27:18;;;;;;;4.30;2.63;;;16.90;99.90;;;;;;5377420;26;20240;-77
2024/04/14 06:29:46;;;;;;;3.00;2.70;;;17.10;99.90;;;;;;5367680;26;20248;-78
2024/04/14 06:32:15;;;;;;;3.43;2.70;;;17.30;99.90;;;;;;5370091;26;20613;-78
2024/04/14 06:34:43;;;;;;;5.53;2.60;;;17.50;99.90;;;;;;5369856;26;20249;-77
2024/04/14 06:37:13;;;;;;;3.50;2.83;;;17.60;99.90;;;;;;5370607;26;20232;-78
2024/04/14 06:39:41;;;;;;;3.70;2.80;;;17.80;99.90;;;;;;5369002;26;20263;-77
2024/04/14 06:42:08;;;;;;;3.20;2.80;;;17.90;99.90;;;;;;5372326;26;20236;-78
2024/04/14 06:44:36;;;;;;;2.60;2.40;;;17.90;99.90;;;;;;5371754;26;20239;-77
2024/04/14 06:47:02;;;;;;;2.63;2.43;;;17.90;99.90;;;;;;5369501;26;20293;-80
2024/04/14 06:49:33;;;;;;;2.60;2.30;;;18.00;99.90;;;;;;5372445;26;20236;-81
2024/04/14 06:51:59;;;;;;;2.23;2.03;;;18.10;99.90;;;;;;5361398;26;20271;-80
2024/04/14 06:54:28;;;;;;;2.57;2.37;;;18.20;99.90;;;;;;5372272;26;20723;-80
2024/04/14 06:56:54;;;;;;;2.50;2.30;;;18.40;99.90;;;;;;5371604;26;20229;-81
2024/04/14 06:59:22;;;;;;;2.60;2.40;;;18.60;99.90;;;;;;5376670;26;20300;-80
2024/04/14 07:01:48;;;;;;;2.57;2.27;;;18.80;99.90;;;;;;5374984;26;20242;-80
2024/04/14 07:04:18;;;;;;;2.23;2.10;;;19.00;99.90;;;;;;5390166;26;20292;-81
2024/04/14 07:06:46;;;;;;;2.50;2.30;;;19.10;99.90;;;;;;5375597;26;20268;-81
2024/04/14 07:09:15;;;;;;;3.47;2.30;;;19.20;99.90;;;;;;5372546;26;20289;-81
2024/04/14 07:11:41;;;;;;;2.47;2.10;;;19.30;99.90;;;;;;5370651;26;20765;-80
2024/04/14 07:14:09;;;;;;;3.37;2.27;;;19.40;99.90;;;;;;5399630;26;20242;-81
2024/04/14 07:16:35;;;;;;;3.67;3.37;;;19.60;99.90;;;;;;5369014;26;20245;-80
2024/04/14 07:19:04;;;;;;;3.67;2.50;;;19.80;99.90;;;;;;5399587;26;20721;-80
2024/04/14 07:21:30;;;;;;;2.50;2.30;;;20.10;99.90;;;;;;5369145;26;20273;-78
2024/04/14 07:24:01;;;;;;;3.83;3.60;;;20.60;99.90;;;;;;5371438;26;20242;-78
2024/04/14 07:26:27;;;;;;;4.30;4.00;;;21.00;99.90;;;;;;5369484;26;20233;-78
2024/04/14 07:28:55;;;;;;;2.20;2.10;;;21.40;99.90;;;;;;5399099;26;20312;-78
2024/04/14 07:31:21;;;;;;;2.40;2.20;;;21.80;99.90;;;;;;5369726;26;20372;-78
2024/04/14 07:33:49;;;;;;;2.93;2.30;;;22.10;99.90;;;;;;5369640;26;20848;-78
2024/04/14 07:36:15;;;;;;;2.80;2.30;;;22.30;99.90;;;;;;5369641;26;20579;-78
2024/04/14 07:38:44;;;;;;;2.63;2.27;;;22.50;99.90;;;;;;5370537;26;20237;-78
2024/04/14 07:41:12;;;;;;;2.63;2.37;;;22.80;99.90;;;;;;5369498;26;20351;-78
2024/04/14 07:43:41;;;;;;;4.00;2.50;;;23.10;99.90;;;;;;5369539;26;20288;-78
2024/04/14 07:46:07;;;;;;;2.57;2.23;;;23.50;99.90;;;;;;5369648;26;20238;-78
2024/04/14 07:48:35;;;;;;;3.97;2.60;;;23.90;99.90;;;;;;5368026;26;20313;-79
2024/04/14 07:51:01;;;;;;;3.80;2.47;;;24.20;99.90;;;;;;5369949;26;20779;-78
2024/04/14 07:53:30;;;;;;;5.00;3.27;;;24.40;99.90;;;;;;5369914;26;20461;-78
2024/04/14 07:55:56;;;;;;;4.37;3.30;;;24.60;99.90;;;;;;5371308;26;20728;-78
2024/04/14 07:58:27;;;;;;;4.83;4.33;;;25.00;99.90;;;;;;5369043;26;20700;-79
2024/04/14 08:00:53;;;;;;;3.70;3.40;;;25.20;99.90;;;;;;5369940;26;20246;-78
2024/04/14 08:03:21;;;;;;;4.80;4.50;;;25.40;99.90;;;;;;5371274;26;20288;-78
2024/04/14 08:05:47;;;;;;;4.70;4.27;;;25.50;99.90;;;;;;5370030;26;20238;-80
2024/04/14 08:08:15;;;;;;;3.90;3.60;;;25.50;99.90;;;;;;5369256;26;20241;-78
2024/04/14 08:10:41;;;;;;;3.50;3.30;;;25.50;99.90;;;;;;5369512;26;20759;-78
2024/04/14 08:13:10;;;;;;;5.53;4.33;;;25.60;99.90;;;;;;5369616;26;20254;-79
2024/04/14 08:15:39;;;;;;;4.90;4.50;;;25.80;99.90;;;;;;5372246;26;20272;-79
2024/04/14 08:18:08;;;;;;;4.27;3.97;;;25.90;99.90;;;;;;5358907;26;20241;-79
2024/04/14 08:20:34;;;;;;;4.37;4.07;;;26.00;99.90;;;;;;5375450;26;20845;-78
2024/04/14 08:23:03;;;;;;;4.20;3.90;;;26.00;99.90;;;;;;5375071;26;20732;-78
2024/04/14 08:25:28;;;;;;;4.37;3.93;;;26.30;99.90;;;;;;5374927;26;20230;-79
2024/04/14 08:27:57;;;;;;;4.40;4.10;;;26.30;99.90;;;;;;5374074;26;20779;-78
2024/04/14 08:30:23;;;;;;;4.30;4.00;;;26.40;99.90;;;;;;5375609;26;20285;-79
2024/04/14 08:32:54;;;;;;;4.30;4.00;;;26.40;99.90;;;;;;5376812;26;20296;-78
2024/04/14 08:35:20;;;;;;;4.10;3.80;;;26.50;99.90;;;;;;5387825;26;20242;-79
2024/04/14 08:37:48;;;;;;;3.87;2.80;;;26.50;99.90;;;;;;5371133;26;20335;-78
2024/04/14 08:40:14;;;;;;;2.90;2.70;;;26.60;99.90;;;;;;5372911;26;20844;-79
2024/04/14 08:42:43;;;;;;;4.03;3.67;;;26.90;99.90;;;;;;5374262;26;20660;-79
2024/04/14 08:45:11;;;;;;;4.53;4.13;;;27.00;99.90;;;;;;5373811;26;20367;-78
2024/04/14 08:47:40;;;;;;;4.10;3.70;;;27.20;99.90;;;;;;5371911;26;20900;-78
2024/04/14 08:50:12;;;;;;;3.37;2.30;;;27.40;99.90;;;;;;5365302;26;20244;-79
2024/04/14 08:52:44;;;;;;;3.87;3.00;;;27.40;99.90;;;;;;5398360;26;20675;-79
2024/04/14 08:55:10;;;;;;;3.23;2.87;;;27.50;99.90;;;;;;5359154;26;20269;-78
2024/04/14 08:57:40;;;;;;;3.53;3.23;;;27.60;99.90;;;;;;5385790;26;20237;-80
2024/04/14 09:00:09;;;;;;;3.27;3.00;;;27.50;99.90;;;;;;5359311;26;20237;-81
2024/04/14 09:02:40;;;;;;;3.43;3.20;;;27.40;99.90;;;;;;5373878;26;20238;-79
2024/04/14 09:05:09;;;;;;;3.60;3.30;;;27.50;99.90;;;;;;5364926;26;20784;-80
2024/04/14 09:07:37;;;;;;;3.67;3.13;;;27.60;99.90;;;;;;5382713;26;20284;-78
2024/04/14 09:10:04;;;;;;;5.77;3.40;;;27.50;99.90;;;;;;5348438;26;20230;-81
2024/04/14 09:12:32;;;;;;;5.50;3.73;;;27.20;99.90;;;;;;5394201;26;20248;-83
2024/04/14 09:14:58;;;;;;;3.63;3.33;;;27.20;99.90;;;;;;5372965;26;20246;-80
2024/04/14 09:17:27;;;;;;;4.10;3.50;;;27.50;99.90;;;;;;5383367;26;20639;-79
2024/04/14 09:19:53;;;;;;;3.37;3.07;;;27.70;99.90;;;;;;5360041;26;20738;-79
2024/04/14 09:22:24;;;;;;;3.90;3.50;;;27.90;99.40;;;;;;5373108;26;20260;-79
2024/04/14 09:24:50;;;;;;;3.43;3.13;;;28.10;99.80;;;;;;5372415;26;20744;-79
2024/04/14 09:27:19;;;;;;;5.00;2.90;;;28.20;99.90;;;;;;5371080;26;20242;-79
2024/04/14 09:29:45;;;;;;;3.80;3.60;;;28.20;99.60;;;;;;5373123;26;20276;-80
2024/04/14 09:32:14;;;;;;;4.30;4.00;;;28.30;99.70;;;;;;5396492;26;20232;-79
2024/04/14 09:34:40;;;;;;;4.47;4.00;;;28.20;99.80;;;;;;5374521;26;20242;-79
2024/04/14 09:37:12;;;;;;;4.50;4.10;;;28.20;99.50;;;;;;5377499;26;20280;-79
2024/04/14 09:39:45;;;;;;;4.50;4.10;;;28.20;98.90;;;;;;5373166;26;20238;-79
2024/04/14 09:42:13;;;;;;;4.45;4.15;;;28.20;98.70;;;;;;5361313;26;20375;-79
2024/04/14 09:44:42;;;;;;;3.63;3.30;;;28.20;98.60;;;;;;5376045;26;20345;-78
2024/04/14 09:47:09;;;;;;;3.70;3.40;;;28.30;99.00;;;;;;5376412;26;20237;-79
2024/04/14 09:49:38;;;;;;;3.30;3.10;;;28.30;97.90;;;;;;5387613;26;20712;-79
2024/04/14 09:52:06;;;;;;;3.63;3.37;;;28.20;98.90;;;;;;5402308;26;20269;-79
2024/04/14 09:54:39;;;;;;;4.43;4.03;;;28.30;99.30;;;;;;5368982;26;20255;-79
2024/04/14 09:57:07;;;;;;;5.10;4.30;;;28.20;97.90;;;;;;5360269;26;20649;-79
2024/04/14 09:59:36;;;;;;;4.30;3.70;;;28.10;98.60;;;;;;5369682;26;20246;-79
2024/04/14 10:02:07;;;;;;;4.23;3.67;;;28.00;99.90;;;;;;5376447;26;20724;-79
2024/04/14 10:04:36;;;;;;;4.27;3.97;;;28.10;99.00;;;;;;5362320;26;20732;-78
2024/04/14 10:07:05;;;;;;;4.17;3.80;;;28.20;98.60;;;;;;5374084;26;20591;-78
2024/04/14 10:09:34;;;;;;;4.27;3.67;;;28.30;98.90;;;;;;5371959;26;20245;-78
2024/04/14 10:12:00;;;;;;;4.17;3.87;;;28.10;97.90;;;;;;5373697;26;20241;-79
2024/04/14 10:14:42;;;;;;;4.93;4.57;;;28.00;97.70;;;;;;5365197;26;20745;-82
2024/04/14 10:17:07;;;;;;;5.93;5.37;;;27.80;98.20;;;;;;5400448;26;20289;-78
2024/04/14 10:19:37;;;;;;;5.23;4.83;;;27.80;98.80;;;;;;5373754;26;20234;-78
2024/04/14 10:22:08;;;;;;;5.30;4.90;;;27.90;98.10;;;;;;5360874;26;20613;-78
2024/04/14 10:24:46;;;;;;;5.57;5.17;;;27.80;98.30;;;;;;5365113;26;20648;-78
2024/04/14 10:27:12;;;;;;;5.80;5.40;;;27.70;98.20;;;;;;5373627;26;20229;-78
2024/04/14 10:29:44;;;;;;;5.60;5.30;;;27.60;98.70;;;;;;5363284;26;20310;-78
2024/04/14 10:32:10;;;;;;;5.43;5.03;;;27.60;99.10;;;;;;5373809;26;20729;-79
2024/04/14 10:34:38;;;;;;;5.70;5.30;;;27.50;98.50;;;;;;5390151;26;20237;-79
2024/04/14 10:37:04;;;;;;;5.90;5.47;;;27.40;98.50;;;;;;5384971;26;20279;-79
2024/04/14 10:39:33;;;;;;;5.77;5.37;;;27.30;98.50;;;;;;5379755;26;20242;-79
2024/04/14 10:41:59;;;;;;;5.57;5.13;;;27.30;98.50;;;;;;5376748;26;20306;-79
2024/04/14 10:44:28;;;;;;;4.63;4.30;;;27.30;98.20;;;;;;5373532;26;20238;-78
2024/04/14 10:46:57;;;;;;;4.77;4.37;;;27.20;98.80;;;;;;5358337;26;20231;-80
2024/04/14 10:49:27;;;;;;;4.57;4.27;;;27.10;98.20;;;;;;5359004;26;20241;-79
2024/04/14 10:51:53;;;;;;;5.03;4.53;;;27.00;97.60;;;;;;5374009;26;20238;-79
2024/04/14 10:54:21;;;;;;;4.43;4.03;;;26.80;97.70;;;;;;5371908;26;20583;-79
2024/04/14 10:56:47;;;;;;;4.40;4.00;;;26.90;98.00;;;;;;5366626;26;20358;-79
2024/04/14 10:59:16;;;;;;;3.90;3.60;;;26.80;98.40;;;;;;5373685;26;20294;-78
2024/04/14 11:01:44;;;;;;;4.57;4.27;;;26.90;97.50;;;;;;5372278;26;20241;-79
2024/04/14 11:04:16;;;;;;;4.43;4.03;;;27.00;97.70;;;;;;5370793;26;20243;-78
2024/04/14 11:06:44;;;;;;;4.55;4.15;;;27.00;97.10;;;;;;5371428;26;20379;-78
2024/04/14 11:09:13;;;;;;;4.33;3.93;;;27.00;97.50;;;;;;5367615;26;20762;-78
2024/04/14 11:11:39;;;;;;;4.30;3.90;;;26.90;96.60;;;;;;5369546;26;20268;-79
2024/04/14 11:14:08;;;;;;;4.20;3.90;;;27.00;96.80;;;;;;5398235;26;20292;-79
2024/04/14 11:16:34;;;;;;;4.43;4.03;;;27.00;96.60;;;;;;5378152;26;20237;-79
2024/04/14 11:19:02;;;;;;;4.10;3.80;;;27.00;96.50;;;;;;5371254;26;20283;-79
2024/04/14 11:21:31;;;;;;;4.27;3.90;;;27.10;96.70;;;;;;5370659;26;20285;-79
2024/04/14 11:24:00;;;;;;;3.90;3.57;;;27.10;95.90;;;;;;5371988;26;20665;-80
2024/04/14 11:26:26;;;;;;;4.40;3.00;;;27.10;95.90;;;;;;5373123;26;20280;-79
2024/04/14 11:28:54;;;;;;;4.60;4.20;;;27.00;96.40;;;;;;5371628;26;20253;-79
2024/04/14 11:31:21;;;;;;;4.10;3.80;;;27.00;96.10;;;;;;5370582;26;20288;-79
2024/04/14 11:33:54;;;;;;;4.03;3.73;;;27.10;95.70;;;;;;5370324;26;20242;-79
2024/04/14 11:36:20;;;;;;;4.50;4.20;;;27.10;95.80;;;;;;5367927;26;20246;-78
2024/04/14 11:38:52;;;;;;;4.30;4.00;;;27.20;95.30;;;;;;5368803;26;20238;-77
2024/04/14 11:41:18;;;;;;;4.23;3.90;;;27.30;95.30;;;;;;5366548;26;20246;-77
2024/04/14 11:43:46;;;;;;;4.50;4.10;;;27.30;95.30;;;;;;5359037;26;20297;-77
2024/04/14 11:46:13;;;;;;;4.20;3.80;;;27.30;96.10;;;;;;5360375;26;20732;-78
2024/04/14 11:48:43;;;;;;;4.00;3.70;;;27.30;95.70;;;;;;5373019;26;20265;-79
2024/04/14 11:51:09;;;;;;;4.03;3.77;;;27.30;94.50;;;;;;5397307;26;20254;-79
2024/04/14 11:53:38;;;;;;;3.80;3.50;;;27.30;94.90;;;;;;5374359;26;20426;-78
2024/04/14 11:56:07;;;;;;;4.03;3.63;;;27.20;95.10;;;;;;5368366;26;20333;-78
2024/04/14 11:58:35;;;;;;;4.57;3.90;;;27.30;95.30;;;;;;5372070;26;20233;-78
2024/04/14 12:01:01;;;;;;;4.30;4.00;;;27.20;93.90;;;;;;5388049;26;20624;-78
2024/04/14 12:03:30;;;;;;;4.07;3.77;;;27.10;94.20;;;;;;5386849;26;20241;-78
2024/04/14 12:05:55;;;;;;;4.33;4.03;;;27.00;94.00;;;;;;5381645;26;20280;-78
2024/04/14 12:08:24;;;;;;;3.77;3.57;;;27.00;94.30;;;;;;5372273;26;20234;-78
2024/04/14 12:10:50;;;;;;;4.43;3.93;;;26.90;93.70;;;;;;5388782;26;20666;-78
2024/04/14 12:13:21;;;;;;;3.90;3.60;;;26.90;94.30;;;;;;5373327;26;20288;-78
2024/04/14 12:15:49;;;;;;;3.30;3.00;;;26.90;94.40;;;;;;5372092;26;20234;-78
2024/04/14 12:18:18;;;;;;;4.30;4.00;;;26.90;94.30;;;;;;5369849;26;20245;-78
2024/04/14 12:20:43;;;;;;;3.70;3.40;;;27.00;94.60;;;;;;5373756;26;20293;-79
2024/04/14 12:23:12;;;;;;;3.97;3.67;;;27.00;94.20;;;;;;5371920;26;20712;-79
2024/04/14 12:25:38;;;;;;;3.73;3.40;;;27.00;94.00;;;;;;5368697;26;20245;-79
2024/04/14 12:28:07;;;;;;;3.83;3.50;;;26.90;94.30;;;;;;5369213;26;20626;-79
2024/04/14 12:30:36;;;;;;;4.30;3.97;;;26.80;94.00;;;;;;5373656;26;20381;-79
2024/04/14 12:33:05;;;;;;;4.13;3.30;;;26.70;93.90;;;;;;5375716;26;20237;-79
2024/04/14 12:35:31;;;;;;;4.57;4.17;;;26.70;94.30;;;;;;5374980;26;20416;-79
2024/04/14 12:37:59;;;;;;;4.77;4.10;;;26.60;94.50;;;;;;5371537;26;20253;-79
2024/04/14 12:40:25;;;;;;;4.20;3.90;;;26.60;94.80;;;;;;5369263;26;20239;-79
2024/04/14 12:42:54;;;;;;;3.93;3.70;;;26.70;94.60;;;;;;5370964;26;20318;-83
2024/04/14 12:45:20;;;;;;;3.50;3.20;;;26.60;94.60;;;;;;5413965;26;20235;-84
2024/04/14 12:47:51;;;;;;;3.60;3.30;;;26.50;94.20;;;;;;5384007;26;20245;-79
2024/04/14 12:50:18;;;;;;;4.10;3.80;;;26.60;94.80;;;;;;5377474;26;20277;-79
2024/04/14 12:52:47;;;;;;;4.00;3.80;;;26.60;95.10;;;;;;5360384;26;20304;-79
2024/04/14 12:55:13;;;;;;;4.17;3.97;;;26.60;94.40;;;;;;5362242;26;20235;-79